sensor_id;sensor_type;location;lat;lon;timestamp;P1;durP1;ratioP1;P2;durP2;ratioP2
68744;SDS011;66104;45.456;11.064;2023-05-07T00:00:21;15.90;;;12.50;;
68744;SDS011;66104;45.456;11.064;2023-05-07T00:02:57;14.40;;;12.80;;
68744;SDS011;66104;45.456;11.064;2023-05-07T00:05:33;16.70;;;12.90;;
68744;SDS011;66104;45.456;11.064;2023-05-07T00:08:10;17.10;;;13.60;;
68744;SDS011;66104;45.456;11.064;2023-05-07T00:10:46;17.70;;;13.70;;
68744;SDS011;66104;45.456;11.064;2023-05-07T00:13:22;17.50;;;13.20;;
68744;SDS011;66104;45.456;11.064;2023-05-07T00:16:01;15.20;;;13.00;;
68744;SDS011;66104;45.456;11.064;2023-05-07T00:18:37;15.80;;;13.20;;
68744;SDS011;66104;45.456;11.064;2023-05-07T00:21:13;14.40;;;12.60;;
68744;SDS011;66104;45.456;11.064;2023-05-07T00:23:50;18.70;;;12.70;;
68744;SDS011;66104;45.456;11.064;2023-05-07T00:26:27;14.90;;;12.60;;
68744;SDS011;66104;45.456;11.064;2023-05-07T00:29:04;16.20;;;13.60;;
68744;SDS011;66104;45.456;11.064;2023-05-07T00:31:40;16.70;;;13.60;;
68744;SDS011;66104;45.456;11.064;2023-05-07T00:34:16;16.80;;;13.50;;
68744;SDS011;66104;45.456;11.064;2023-05-07T00:36:52;17.90;;;14.00;;
68744;SDS011;66104;45.456;11.064;2023-05-07T00:39:28;16.20;;;13.50;;
68744;SDS011;66104;45.456;11.064;2023-05-07T00:42:06;16.70;;;13.60;;
68744;SDS011;66104;45.456;11.064;2023-05-07T00:44:43;17.10;;;13.30;;
68744;SDS011;66104;45.456;11.064;2023-05-07T00:47:19;16.70;;;13.60;;
68744;SDS011;66104;45.456;11.064;2023-05-07T00:49:56;17.30;;;14.40;;
68744;SDS011;66104;45.456;11.064;2023-05-07T00:52:33;16.00;;;14.10;;
68744;SDS011;66104;45.456;11.064;2023-05-07T00:55:11;18.70;;;13.30;;
68744;SDS011;66104;45.456;11.064;2023-05-07T00:57:47;18.40;;;14.00;;
68744;SDS011;66104;45.456;11.064;2023-05-07T01:00:24;16.00;;;13.30;;
68744;SDS011;66104;45.456;11.064;2023-05-07T01:03:01;16.80;;;13.60;;
68744;SDS011;66104;45.456;11.064;2023-05-07T01:05:38;16.80;;;14.10;;
68744;SDS011;66104;45.456;11.064;2023-05-07T01:08:16;14.80;;;13.00;;
68744;SDS011;66104;45.456;11.064;2023-05-07T01:10:54;15.80;;;13.70;;
68744;SDS011;66104;45.456;11.064;2023-05-07T01:13:31;19.30;;;14.60;;
68744;SDS011;66104;45.456;11.064;2023-05-07T01:16:12;19.20;;;13.40;;
68744;SDS011;66104;45.456;11.064;2023-05-07T01:18:48;18.50;;;14.30;;
68744;SDS011;66104;45.456;11.064;2023-05-07T01:21:27;15.50;;;13.30;;
68744;SDS011;66104;45.456;11.064;2023-05-07T01:24:08;20.20;;;13.80;;
68744;SDS011;66104;45.456;11.064;2023-05-07T01:26:45;18.30;;;14.00;;
68744;SDS011;66104;45.456;11.064;2023-05-07T01:29:22;19.40;;;14.40;;
68744;SDS011;66104;45.456;11.064;2023-05-07T01:31:59;14.90;;;13.20;;
68744;SDS011;66104;45.456;11.064;2023-05-07T01:34:36;13.80;;;11.60;;
68744;SDS011;66104;45.456;11.064;2023-05-07T01:37:15;16.30;;;12.80;;
68744;SDS011;66104;45.456;11.064;2023-05-07T01:39:51;16.40;;;13.30;;
68744;SDS011;66104;45.456;11.064;2023-05-07T01:42:27;13.70;;;11.70;;
68744;SDS011;66104;45.456;11.064;2023-05-07T01:45:06;17.10;;;14.60;;
68744;SDS011;66104;45.456;11.064;2023-05-07T01:47:45;15.20;;;13.50;;
68744;SDS011;66104;45.456;11.064;2023-05-07T01:50:23;15.90;;;13.30;;
68744;SDS011;66104;45.456;11.064;2023-05-07T01:53:00;17.10;;;13.50;;
68744;SDS011;66104;45.456;11.064;2023-05-07T01:55:36;16.00;;;12.70;;
68744;SDS011;66104;45.456;11.064;2023-05-07T01:58:13;14.90;;;12.30;;
68744;SDS011;66104;45.456;11.064;2023-05-07T02:00:50;13.60;;;11.70;;
68744;SDS011;66104;45.456;11.064;2023-05-07T02:03:26;14.30;;;11.20;;
68744;SDS011;66104;45.456;11.064;2023-05-07T02:06:08;13.70;;;11.60;;
68744;SDS011;66104;45.456;11.064;2023-05-07T02:08:45;14.60;;;10.60;;
68744;SDS011;66104;45.456;11.064;2023-05-07T02:11:21;12.30;;;10.70;;
68744;SDS011;66104;45.456;11.064;2023-05-07T02:13:57;13.80;;;10.30;;
68744;SDS011;66104;45.456;11.064;2023-05-07T02:16:33;13.60;;;11.20;;
68744;SDS011;66104;45.456;11.064;2023-05-07T02:19:10;14.40;;;10.70;;
68744;SDS011;66104;45.456;11.064;2023-05-07T02:21:47;13.80;;;11.70;;
68744;SDS011;66104;45.456;11.064;2023-05-07T02:24:23;14.30;;;12.10;;
68744;SDS011;66104;45.456;11.064;2023-05-07T02:26:59;15.40;;;11.50;;
68744;SDS011;66104;45.456;11.064;2023-05-07T02:29:36;12.60;;;11.20;;
68744;SDS011;66104;45.456;11.064;2023-05-07T02:32:13;15.40;;;11.80;;
68744;SDS011;66104;45.456;11.064;2023-05-07T02:37:46;13.70;;;11.90;;
68744;SDS011;66104;45.456;11.064;2023-05-07T02:40:24;14.60;;;12.30;;
68744;SDS011;66104;45.456;11.064;2023-05-07T02:43:01;14.00;;;11.80;;
68744;SDS011;66104;45.456;11.064;2023-05-07T02:45:39;15.00;;;11.20;;
68744;SDS011;66104;45.456;11.064;2023-05-07T02:48:17;16.70;;;11.80;;
68744;SDS011;66104;45.456;11.064;2023-05-07T02:50:53;13.20;;;11.20;;
68744;SDS011;66104;45.456;11.064;2023-05-07T02:53:30;13.70;;;11.80;;
68744;SDS011;66104;45.456;11.064;2023-05-07T02:56:08;13.90;;;12.20;;
68744;SDS011;66104;45.456;11.064;2023-05-07T02:58:48;14.50;;;11.70;;
68744;SDS011;66104;45.456;11.064;2023-05-07T03:01:26;15.40;;;11.80;;
68744;SDS011;66104;45.456;11.064;2023-05-07T03:04:08;15.70;;;12.30;;
68744;SDS011;66104;45.456;11.064;2023-05-07T03:06:44;14.00;;;11.90;;
68744;SDS011;66104;45.456;11.064;2023-05-07T03:09:20;16.00;;;12.70;;
68744;SDS011;66104;45.456;11.064;2023-05-07T03:11:58;15.40;;;13.30;;
68744;SDS011;66104;45.456;11.064;2023-05-07T03:14:35;15.00;;;12.80;;
68744;SDS011;66104;45.456;11.064;2023-05-07T03:17:11;15.60;;;13.10;;
68744;SDS011;66104;45.456;11.064;2023-05-07T03:19:46;15.70;;;13.40;;
68744;SDS011;66104;45.456;11.064;2023-05-07T03:22:28;16.60;;;13.30;;
68744;SDS011;66104;45.456;11.064;2023-05-07T03:25:08;15.30;;;12.90;;
68744;SDS011;66104;45.456;11.064;2023-05-07T03:27:45;15.80;;;12.60;;
68744;SDS011;66104;45.456;11.064;2023-05-07T03:30:23;15.30;;;12.70;;
68744;SDS011;66104;45.456;11.064;2023-05-07T03:33:00;17.20;;;13.20;;
68744;SDS011;66104;45.456;11.064;2023-05-07T03:35:36;15.10;;;12.70;;
68744;SDS011;66104;45.456;11.064;2023-05-07T03:38:13;14.90;;;12.60;;
68744;SDS011;66104;45.456;11.064;2023-05-07T03:40:52;15.00;;;12.80;;
68744;SDS011;66104;45.456;11.064;2023-05-07T03:43:29;16.80;;;13.00;;
68744;SDS011;66104;45.456;11.064;2023-05-07T03:46:09;17.70;;;13.80;;
68744;SDS011;66104;45.456;11.064;2023-05-07T03:48:48;15.00;;;13.20;;
68744;SDS011;66104;45.456;11.064;2023-05-07T03:51:25;16.40;;;13.80;;
68744;SDS011;66104;45.456;11.064;2023-05-07T03:54:02;16.00;;;13.10;;
68744;SDS011;66104;45.456;11.064;2023-05-07T03:56:39;18.60;;;13.80;;
68744;SDS011;66104;45.456;11.064;2023-05-07T03:59:15;15.90;;;13.60;;
68744;SDS011;66104;45.456;11.064;2023-05-07T04:01:53;15.80;;;13.50;;
68744;SDS011;66104;45.456;11.064;2023-05-07T04:04:34;15.70;;;12.80;;
68744;SDS011;66104;45.456;11.064;2023-05-07T04:07:11;17.10;;;13.50;;
68744;SDS011;66104;45.456;11.064;2023-05-07T04:09:51;16.30;;;13.10;;
68744;SDS011;66104;45.456;11.064;2023-05-07T04:12:28;18.20;;;14.00;;
68744;SDS011;66104;45.456;11.064;2023-05-07T04:15:05;16.10;;;13.60;;
68744;SDS011;66104;45.456;11.064;2023-05-07T04:17:44;15.00;;;12.80;;
68744;SDS011;66104;45.456;11.064;2023-05-07T04:20:24;15.40;;;13.20;;
68744;SDS011;66104;45.456;11.064;2023-05-07T04:23:04;15.90;;;12.10;;
68744;SDS011;66104;45.456;11.064;2023-05-07T04:25:42;15.60;;;12.60;;
68744;SDS011;66104;45.456;11.064;2023-05-07T04:28:48;15.20;;;13.30;;
68744;SDS011;66104;45.456;11.064;2023-05-07T04:31:24;17.10;;;13.40;;
68744;SDS011;66104;45.456;11.064;2023-05-07T04:34:02;17.80;;;14.00;;
68744;SDS011;66104;45.456;11.064;2023-05-07T04:36:38;17.10;;;14.40;;
68744;SDS011;66104;45.456;11.064;2023-05-07T04:39:15;19.20;;;14.20;;
68744;SDS011;66104;45.456;11.064;2023-05-07T04:41:52;18.40;;;12.70;;
68744;SDS011;66104;45.456;11.064;2023-05-07T04:44:29;17.20;;;14.00;;
68744;SDS011;66104;45.456;11.064;2023-05-07T04:47:06;18.60;;;13.80;;
68744;SDS011;66104;45.456;11.064;2023-05-07T04:49:43;17.50;;;13.70;;
68744;SDS011;66104;45.456;11.064;2023-05-07T04:52:20;25.40;;;14.10;;
68744;SDS011;66104;45.456;11.064;2023-05-07T04:54:59;19.20;;;14.10;;
68744;SDS011;66104;45.456;11.064;2023-05-07T04:57:39;17.60;;;13.60;;
68744;SDS011;66104;45.456;11.064;2023-05-07T05:00:18;17.20;;;14.10;;
68744;SDS011;66104;45.456;11.064;2023-05-07T05:02:54;18.20;;;14.30;;
68744;SDS011;66104;45.456;11.064;2023-05-07T05:05:32;16.40;;;13.50;;
68744;SDS011;66104;45.456;11.064;2023-05-07T05:08:09;16.70;;;13.10;;
68744;SDS011;66104;45.456;11.064;2023-05-07T05:10:45;17.20;;;13.60;;
68744;SDS011;66104;45.456;11.064;2023-05-07T05:13:22;16.90;;;12.40;;
68744;SDS011;66104;45.456;11.064;2023-05-07T05:15:59;14.30;;;12.20;;
68744;SDS011;66104;45.456;11.064;2023-05-07T05:18:35;15.00;;;12.00;;
68744;SDS011;66104;45.456;11.064;2023-05-07T05:21:12;14.80;;;12.10;;
68744;SDS011;66104;45.456;11.064;2023-05-07T05:23:50;13.50;;;11.90;;
68744;SDS011;66104;45.456;11.064;2023-05-07T05:26:28;15.90;;;13.30;;
68744;SDS011;66104;45.456;11.064;2023-05-07T05:29:05;16.70;;;12.50;;
68744;SDS011;66104;45.456;11.064;2023-05-07T05:31:44;15.40;;;12.50;;
68744;SDS011;66104;45.456;11.064;2023-05-07T05:34:21;13.30;;;11.80;;
68744;SDS011;66104;45.456;11.064;2023-05-07T05:36:58;15.10;;;12.80;;
68744;SDS011;66104;45.456;11.064;2023-05-07T05:39:35;14.20;;;12.20;;
68744;SDS011;66104;45.456;11.064;2023-05-07T05:42:13;18.00;;;13.10;;
68744;SDS011;66104;45.456;11.064;2023-05-07T05:44:49;19.30;;;15.30;;
68744;SDS011;66104;45.456;11.064;2023-05-07T05:47:27;18.60;;;15.30;;
68744;SDS011;66104;45.456;11.064;2023-05-07T05:50:08;17.30;;;14.30;;
68744;SDS011;66104;45.456;11.064;2023-05-07T05:52:45;19.00;;;15.20;;
68744;SDS011;66104;45.456;11.064;2023-05-07T05:55:22;20.70;;;15.10;;
68744;SDS011;66104;45.456;11.064;2023-05-07T05:57:59;20.50;;;15.40;;
68744;SDS011;66104;45.456;11.064;2023-05-07T06:00:37;23.90;;;15.70;;
68744;SDS011;66104;45.456;11.064;2023-05-07T06:03:13;22.30;;;15.60;;
68744;SDS011;66104;45.456;11.064;2023-05-07T06:05:51;18.10;;;14.50;;
68744;SDS011;66104;45.456;11.064;2023-05-07T06:08:28;18.50;;;15.90;;
68744;SDS011;66104;45.456;11.064;2023-05-07T06:11:06;20.70;;;16.50;;
68744;SDS011;66104;45.456;11.064;2023-05-07T06:13:44;18.00;;;16.00;;
68744;SDS011;66104;45.456;11.064;2023-05-07T06:16:20;20.80;;;16.60;;
68744;SDS011;66104;45.456;11.064;2023-05-07T06:18:58;22.00;;;17.60;;
68744;SDS011;66104;45.456;11.064;2023-05-07T06:21:35;20.80;;;17.10;;
68744;SDS011;66104;45.456;11.064;2023-05-07T06:24:12;19.20;;;16.30;;
68744;SDS011;66104;45.456;11.064;2023-05-07T06:26:48;21.30;;;17.50;;
68744;SDS011;66104;45.456;11.064;2023-05-07T06:29:25;20.00;;;16.40;;
68744;SDS011;66104;45.456;11.064;2023-05-07T06:32:10;18.30;;;15.90;;
68744;SDS011;66104;45.456;11.064;2023-05-07T06:34:48;20.90;;;16.60;;
68744;SDS011;66104;45.456;11.064;2023-05-07T06:37:24;19.70;;;16.40;;
68744;SDS011;66104;45.456;11.064;2023-05-07T06:40:12;22.20;;;17.30;;
68744;SDS011;66104;45.456;11.064;2023-05-07T06:42:50;20.50;;;16.60;;
68744;SDS011;66104;45.456;11.064;2023-05-07T06:45:39;18.80;;;16.50;;
68744;SDS011;66104;45.456;11.064;2023-05-07T06:48:15;20.10;;;16.20;;
68744;SDS011;66104;45.456;11.064;2023-05-07T06:51:00;21.40;;;17.30;;
68744;SDS011;66104;45.456;11.064;2023-05-07T06:53:37;18.90;;;16.20;;
68744;SDS011;66104;45.456;11.064;2023-05-07T06:56:14;17.60;;;15.60;;
68744;SDS011;66104;45.456;11.064;2023-05-07T06:58:51;18.60;;;15.70;;
68744;SDS011;66104;45.456;11.064;2023-05-07T07:01:28;19.90;;;15.20;;
68744;SDS011;66104;45.456;11.064;2023-05-07T07:04:07;17.00;;;15.20;;
68744;SDS011;66104;45.456;11.064;2023-05-07T07:06:43;20.40;;;14.80;;
68744;SDS011;66104;45.456;11.064;2023-05-07T07:09:20;19.40;;;13.70;;
68744;SDS011;66104;45.456;11.064;2023-05-07T07:11:57;22.10;;;15.20;;
68744;SDS011;66104;45.456;11.064;2023-05-07T07:14:34;22.30;;;15.60;;
68744;SDS011;66104;45.456;11.064;2023-05-07T07:17:10;22.90;;;16.20;;
68744;SDS011;66104;45.456;11.064;2023-05-07T07:19:46;19.20;;;15.20;;
68744;SDS011;66104;45.456;11.064;2023-05-07T07:22:23;20.90;;;16.60;;
68744;SDS011;66104;45.456;11.064;2023-05-07T07:24:59;22.00;;;16.20;;
68744;SDS011;66104;45.456;11.064;2023-05-07T07:27:37;22.90;;;16.10;;
68744;SDS011;66104;45.456;11.064;2023-05-07T07:30:16;20.00;;;16.20;;
68744;SDS011;66104;45.456;11.064;2023-05-07T07:32:52;19.20;;;16.00;;
68744;SDS011;66104;45.456;11.064;2023-05-07T07:35:35;17.60;;;15.00;;
68744;SDS011;66104;45.456;11.064;2023-05-07T07:38:11;19.50;;;15.50;;
68744;SDS011;66104;45.456;11.064;2023-05-07T07:40:49;17.30;;;15.20;;
68744;SDS011;66104;45.456;11.064;2023-05-07T07:43:26;19.10;;;14.50;;
68744;SDS011;66104;45.456;11.064;2023-05-07T07:46:03;22.60;;;17.50;;
68744;SDS011;66104;45.456;11.064;2023-05-07T07:48:40;22.00;;;16.40;;
68744;SDS011;66104;45.456;11.064;2023-05-07T07:51:16;19.60;;;16.20;;
68744;SDS011;66104;45.456;11.064;2023-05-07T07:53:52;19.00;;;16.20;;
68744;SDS011;66104;45.456;11.064;2023-05-07T07:56:29;19.90;;;17.00;;
68744;SDS011;66104;45.456;11.064;2023-05-07T07:59:05;19.00;;;16.40;;
68744;SDS011;66104;45.456;11.064;2023-05-07T08:01:43;19.20;;;15.40;;
68744;SDS011;66104;45.456;11.064;2023-05-07T08:04:25;19.70;;;17.00;;
68744;SDS011;66104;45.456;11.064;2023-05-07T08:07:06;22.30;;;17.70;;
68744;SDS011;66104;45.456;11.064;2023-05-07T08:09:46;19.30;;;16.50;;
68744;SDS011;66104;45.456;11.064;2023-05-07T08:12:25;19.10;;;16.60;;
68744;SDS011;66104;45.456;11.064;2023-05-07T08:15:00;20.90;;;16.40;;
68744;SDS011;66104;45.456;11.064;2023-05-07T08:17:38;17.70;;;14.40;;
68744;SDS011;66104;45.456;11.064;2023-05-07T08:20:16;16.50;;;14.50;;
68744;SDS011;66104;45.456;11.064;2023-05-07T08:22:54;15.70;;;12.50;;
68744;SDS011;66104;45.456;11.064;2023-05-07T08:25:32;15.10;;;11.40;;
68744;SDS011;66104;45.456;11.064;2023-05-07T08:28:09;16.50;;;12.60;;
68744;SDS011;66104;45.456;11.064;2023-05-07T08:30:45;18.30;;;13.40;;
68744;SDS011;66104;45.456;11.064;2023-05-07T08:33:23;14.40;;;12.70;;
68744;SDS011;66104;45.456;11.064;2023-05-07T08:36:00;14.80;;;13.20;;
68744;SDS011;66104;45.456;11.064;2023-05-07T08:38:38;14.90;;;13.00;;
68744;SDS011;66104;45.456;11.064;2023-05-07T08:41:15;14.20;;;12.20;;
68744;SDS011;66104;45.456;11.064;2023-05-07T08:43:52;14.40;;;11.90;;
68744;SDS011;66104;45.456;11.064;2023-05-07T08:46:33;14.70;;;11.30;;
68744;SDS011;66104;45.456;11.064;2023-05-07T08:49:10;15.90;;;13.50;;
68744;SDS011;66104;45.456;11.064;2023-05-07T08:51:48;17.40;;;14.60;;
68744;SDS011;66104;45.456;11.064;2023-05-07T08:54:26;18.50;;;14.00;;
68744;SDS011;66104;45.456;11.064;2023-05-07T08:57:04;18.50;;;15.20;;
68744;SDS011;66104;45.456;11.064;2023-05-07T08:59:42;17.10;;;14.40;;
68744;SDS011;66104;45.456;11.064;2023-05-07T09:02:18;16.70;;;13.10;;
68744;SDS011;66104;45.456;11.064;2023-05-07T09:04:55;18.70;;;13.20;;
68744;SDS011;66104;45.456;11.064;2023-05-07T09:07:32;19.20;;;14.40;;
68744;SDS011;66104;45.456;11.064;2023-05-07T09:10:13;16.90;;;14.40;;
68744;SDS011;66104;45.456;11.064;2023-05-07T09:12:50;18.00;;;14.30;;
68744;SDS011;66104;45.456;11.064;2023-05-07T09:15:27;18.40;;;15.30;;
68744;SDS011;66104;45.456;11.064;2023-05-07T09:18:04;18.30;;;14.90;;
68744;SDS011;66104;45.456;11.064;2023-05-07T09:20:40;18.50;;;14.80;;
68744;SDS011;66104;45.456;11.064;2023-05-07T09:23:18;17.80;;;13.60;;
68744;SDS011;66104;45.456;11.064;2023-05-07T09:26:02;16.20;;;14.10;;
68744;SDS011;66104;45.456;11.064;2023-05-07T09:28:44;15.10;;;11.70;;
68744;SDS011;66104;45.456;11.064;2023-05-07T09:31:21;15.40;;;11.60;;
68744;SDS011;66104;45.456;11.064;2023-05-07T09:33:58;14.00;;;11.80;;
68744;SDS011;66104;45.456;11.064;2023-05-07T09:36:36;13.40;;;10.90;;
68744;SDS011;66104;45.456;11.064;2023-05-07T09:39:12;13.40;;;11.80;;
68744;SDS011;66104;45.456;11.064;2023-05-07T09:41:48;16.40;;;11.50;;
68744;SDS011;66104;45.456;11.064;2023-05-07T09:44:33;18.90;;;13.80;;
68744;SDS011;66104;45.456;11.064;2023-05-07T09:47:14;17.80;;;14.20;;
68744;SDS011;66104;45.456;11.064;2023-05-07T09:49:57;20.00;;;17.20;;
68744;SDS011;66104;45.456;11.064;2023-05-07T09:52:37;17.30;;;13.90;;
68744;SDS011;66104;45.456;11.064;2023-05-07T09:55:15;19.90;;;17.10;;
68744;SDS011;66104;45.456;11.064;2023-05-07T09:57:53;19.30;;;15.30;;
68744;SDS011;66104;45.456;11.064;2023-05-07T10:00:31;19.40;;;15.70;;
68744;SDS011;66104;45.456;11.064;2023-05-07T10:03:11;20.50;;;14.60;;
68744;SDS011;66104;45.456;11.064;2023-05-07T10:05:55;17.60;;;13.60;;
68744;SDS011;66104;45.456;11.064;2023-05-07T10:08:33;16.60;;;13.30;;
68744;SDS011;66104;45.456;11.064;2023-05-07T10:11:10;15.90;;;12.60;;
68744;SDS011;66104;45.456;11.064;2023-05-07T10:13:48;14.90;;;11.80;;
68744;SDS011;66104;45.456;11.064;2023-05-07T10:16:25;15.70;;;11.70;;
68744;SDS011;66104;45.456;11.064;2023-05-07T10:19:04;14.80;;;11.10;;
68744;SDS011;66104;45.456;11.064;2023-05-07T10:21:48;12.00;;;10.60;;
68744;SDS011;66104;45.456;11.064;2023-05-07T10:24:31;13.60;;;10.80;;
68744;SDS011;66104;45.456;11.064;2023-05-07T10:27:15;16.70;;;12.30;;
68744;SDS011;66104;45.456;11.064;2023-05-07T10:30:00;15.20;;;12.20;;
68744;SDS011;66104;45.456;11.064;2023-05-07T10:32:49;16.50;;;12.80;;
68744;SDS011;66104;45.456;11.064;2023-05-07T10:35:40;16.30;;;12.80;;
68744;SDS011;66104;45.456;11.064;2023-05-07T10:38:18;15.60;;;13.50;;
68744;SDS011;66104;45.456;11.064;2023-05-07T10:40:56;16.50;;;13.10;;
68744;SDS011;66104;45.456;11.064;2023-05-07T10:43:42;15.30;;;12.30;;
68744;SDS011;66104;45.456;11.064;2023-05-07T10:46:24;14.30;;;11.60;;
68744;SDS011;66104;45.456;11.064;2023-05-07T10:49:12;15.50;;;11.50;;
68744;SDS011;66104;45.456;11.064;2023-05-07T10:52:24;12.00;;;10.20;;
68744;SDS011;66104;45.456;11.064;2023-05-07T10:55:28;15.70;;;11.50;;
68744;SDS011;66104;45.456;11.064;2023-05-07T10:58:27;15.60;;;11.70;;
68744;SDS011;66104;45.456;11.064;2023-05-07T11:01:52;14.70;;;12.10;;
68744;SDS011;66104;45.456;11.064;2023-05-07T11:04:39;19.00;;;14.30;;
68744;SDS011;66104;45.456;11.064;2023-05-07T11:07:39;12.20;;;10.60;;
68744;SDS011;66104;45.456;11.064;2023-05-07T11:10:49;15.90;;;11.70;;
68744;SDS011;66104;45.456;11.064;2023-05-07T11:13:52;13.30;;;10.80;;
68744;SDS011;66104;45.456;11.064;2023-05-07T11:16:37;11.70;;;10.10;;
68744;SDS011;66104;45.456;11.064;2023-05-07T11:19:50;14.70;;;11.80;;
68744;SDS011;66104;45.456;11.064;2023-05-07T11:22:50;15.30;;;11.40;;
68744;SDS011;66104;45.456;11.064;2023-05-07T11:26:02;12.70;;;10.20;;
68744;SDS011;66104;45.456;11.064;2023-05-07T11:28:41;14.30;;;12.40;;
68744;SDS011;66104;45.456;11.064;2023-05-07T11:31:22;15.50;;;13.10;;
68744;SDS011;66104;45.456;11.064;2023-05-07T11:34:01;16.20;;;11.80;;
68744;SDS011;66104;45.456;11.064;2023-05-07T11:36:43;11.00;;;9.70;;
68744;SDS011;66104;45.456;11.064;2023-05-07T11:39:32;14.20;;;8.90;;
68744;SDS011;66104;45.456;11.064;2023-05-07T11:42:27;13.00;;;8.80;;
68744;SDS011;66104;45.456;11.064;2023-05-07T11:45:06;12.20;;;10.60;;
68744;SDS011;66104;45.456;11.064;2023-05-07T11:47:45;10.30;;;9.00;;
68744;SDS011;66104;45.456;11.064;2023-05-07T11:50:22;11.40;;;8.80;;
68744;SDS011;66104;45.456;11.064;2023-05-07T11:52:59;10.30;;;8.80;;
68744;SDS011;66104;45.456;11.064;2023-05-07T11:55:40;9.80;;;7.80;;
68744;SDS011;66104;45.456;11.064;2023-05-07T11:58:23;13.60;;;11.10;;
68744;SDS011;66104;45.456;11.064;2023-05-07T12:01:00;9.90;;;8.50;;
68744;SDS011;66104;45.456;11.064;2023-05-07T12:03:36;11.20;;;9.50;;
68744;SDS011;66104;45.456;11.064;2023-05-07T12:06:14;10.40;;;8.30;;
68744;SDS011;66104;45.456;11.064;2023-05-07T12:08:51;10.60;;;6.90;;
68744;SDS011;66104;45.456;11.064;2023-05-07T12:11:27;9.30;;;7.90;;
68744;SDS011;66104;45.456;11.064;2023-05-07T12:14:03;12.10;;;8.30;;
68744;SDS011;66104;45.456;11.064;2023-05-07T12:16:42;13.00;;;9.60;;
68744;SDS011;66104;45.456;11.064;2023-05-07T12:19:20;11.10;;;8.80;;
68744;SDS011;66104;45.456;11.064;2023-05-07T12:21:57;13.50;;;8.60;;
68744;SDS011;66104;45.456;11.064;2023-05-07T12:24:46;9.10;;;7.50;;
68744;SDS011;66104;45.456;11.064;2023-05-07T12:27:22;8.30;;;6.80;;
68744;SDS011;66104;45.456;11.064;2023-05-07T12:29:59;8.50;;;6.30;;
68744;SDS011;66104;45.456;11.064;2023-05-07T12:32:36;7.90;;;6.00;;
68744;SDS011;66104;45.456;11.064;2023-05-07T12:35:12;8.60;;;6.90;;
68744;SDS011;66104;45.456;11.064;2023-05-07T12:37:58;9.90;;;6.40;;
68744;SDS011;66104;45.456;11.064;2023-05-07T12:40:42;10.10;;;7.00;;
68744;SDS011;66104;45.456;11.064;2023-05-07T12:43:24;9.00;;;6.20;;
68744;SDS011;66104;45.456;11.064;2023-05-07T12:46:04;6.80;;;5.90;;
68744;SDS011;66104;45.456;11.064;2023-05-07T12:48:44;10.90;;;6.10;;
68744;SDS011;66104;45.456;11.064;2023-05-07T12:51:21;10.40;;;7.20;;
68744;SDS011;66104;45.456;11.064;2023-05-07T12:53:59;7.70;;;5.40;;
68744;SDS011;66104;45.456;11.064;2023-05-07T12:56:37;7.10;;;6.20;;
68744;SDS011;66104;45.456;11.064;2023-05-07T12:59:14;8.70;;;5.70;;
68744;SDS011;66104;45.456;11.064;2023-05-07T13:01:50;7.10;;;5.60;;
68744;SDS011;66104;45.456;11.064;2023-05-07T13:04:28;8.50;;;6.40;;
68744;SDS011;66104;45.456;11.064;2023-05-07T13:07:04;8.10;;;6.10;;
68744;SDS011;66104;45.456;11.064;2023-05-07T13:09:41;8.30;;;6.60;;
68744;SDS011;66104;45.456;11.064;2023-05-07T13:12:18;7.30;;;5.50;;
68744;SDS011;66104;45.456;11.064;2023-05-07T13:14:55;7.40;;;5.90;;
68744;SDS011;66104;45.456;11.064;2023-05-07T13:17:31;7.20;;;5.60;;
68744;SDS011;66104;45.456;11.064;2023-05-07T13:20:10;7.90;;;6.60;;
68744;SDS011;66104;45.456;11.064;2023-05-07T13:22:48;10.40;;;6.80;;
68744;SDS011;66104;45.456;11.064;2023-05-07T13:25:24;8.50;;;6.90;;
68744;SDS011;66104;45.456;11.064;2023-05-07T13:28:00;10.10;;;8.60;;
68744;SDS011;66104;45.456;11.064;2023-05-07T13:30:41;10.50;;;6.80;;
68744;SDS011;66104;45.456;11.064;2023-05-07T13:33:17;8.40;;;7.00;;
68744;SDS011;66104;45.456;11.064;2023-05-07T13:35:53;11.60;;;8.30;;
68744;SDS011;66104;45.456;11.064;2023-05-07T13:38:31;9.20;;;7.40;;
68744;SDS011;66104;45.456;11.064;2023-05-07T13:41:07;8.40;;;7.20;;
68744;SDS011;66104;45.456;11.064;2023-05-07T13:43:45;7.80;;;6.90;;
68744;SDS011;66104;45.456;11.064;2023-05-07T13:46:21;8.50;;;6.70;;
68744;SDS011;66104;45.456;11.064;2023-05-07T13:48:58;7.20;;;6.40;;
68744;SDS011;66104;45.456;11.064;2023-05-07T13:51:34;10.40;;;6.90;;
68744;SDS011;66104;45.456;11.064;2023-05-07T13:54:11;9.00;;;7.80;;
68744;SDS011;66104;45.456;11.064;2023-05-07T13:56:46;8.70;;;7.80;;
68744;SDS011;66104;45.456;11.064;2023-05-07T13:59:23;8.30;;;7.50;;
68744;SDS011;66104;45.456;11.064;2023-05-07T14:01:59;10.40;;;8.60;;
68744;SDS011;66104;45.456;11.064;2023-05-07T14:04:36;8.50;;;7.00;;
68744;SDS011;66104;45.456;11.064;2023-05-07T14:07:13;9.20;;;6.00;;
68744;SDS011;66104;45.456;11.064;2023-05-07T14:09:49;7.00;;;5.60;;
68744;SDS011;66104;45.456;11.064;2023-05-07T14:12:25;7.20;;;6.20;;
68744;SDS011;66104;45.456;11.064;2023-05-07T14:15:02;9.40;;;6.50;;
68744;SDS011;66104;45.456;11.064;2023-05-07T14:17:41;7.50;;;6.60;;
68744;SDS011;66104;45.456;11.064;2023-05-07T14:20:17;7.90;;;6.30;;
68744;SDS011;66104;45.456;11.064;2023-05-07T14:22:54;9.40;;;7.40;;
68744;SDS011;66104;45.456;11.064;2023-05-07T14:25:31;9.90;;;8.30;;
68744;SDS011;66104;45.456;11.064;2023-05-07T14:28:07;9.50;;;8.40;;
68744;SDS011;66104;45.456;11.064;2023-05-07T14:30:43;9.70;;;8.70;;
68744;SDS011;66104;45.456;11.064;2023-05-07T14:33:19;8.80;;;7.90;;
68744;SDS011;66104;45.456;11.064;2023-05-07T14:35:56;11.50;;;9.30;;
68744;SDS011;66104;45.456;11.064;2023-05-07T14:38:32;11.80;;;8.60;;
68744;SDS011;66104;45.456;11.064;2023-05-07T14:41:09;11.80;;;8.80;;
68744;SDS011;66104;45.456;11.064;2023-05-07T14:43:46;12.10;;;9.60;;
68744;SDS011;66104;45.456;11.064;2023-05-07T14:46:24;13.60;;;10.10;;
68744;SDS011;66104;45.456;11.064;2023-05-07T14:49:00;11.90;;;9.20;;
68744;SDS011;66104;45.456;11.064;2023-05-07T14:51:37;10.40;;;8.40;;
68744;SDS011;66104;45.456;11.064;2023-05-07T14:54:14;9.60;;;8.00;;
68744;SDS011;66104;45.456;11.064;2023-05-07T14:56:50;13.30;;;10.00;;
68744;SDS011;66104;45.456;11.064;2023-05-07T14:59:26;11.80;;;8.20;;
68744;SDS011;66104;45.456;11.064;2023-05-07T15:02:02;11.00;;;8.40;;
68744;SDS011;66104;45.456;11.064;2023-05-07T15:04:40;13.20;;;10.40;;
68744;SDS011;66104;45.456;11.064;2023-05-07T15:07:19;12.10;;;9.50;;
68744;SDS011;66104;45.456;11.064;2023-05-07T15:09:56;9.90;;;8.90;;
68744;SDS011;66104;45.456;11.064;2023-05-07T15:12:32;10.80;;;7.90;;
68744;SDS011;66104;45.456;11.064;2023-05-07T15:15:12;11.40;;;7.70;;
68744;SDS011;66104;45.456;11.064;2023-05-07T15:17:50;8.70;;;7.40;;
68744;SDS011;66104;45.456;11.064;2023-05-07T15:20:27;9.00;;;7.90;;
68744;SDS011;66104;45.456;11.064;2023-05-07T15:23:03;9.60;;;8.20;;